sensor_id;sensor_type;location;lat;lon;timestamp;P1;durP1;ratioP1;P2;durP2;ratioP2
19329;SDS011;9799;48.214;16.388;2023-03-20T00:02:43;29.53;;;21.70;;
19329;SDS011;9799;48.214;16.388;2023-03-20T00:06:09;35.33;;;23.63;;
19329;SDS011;9799;48.214;16.388;2023-03-20T00:09:34;34.07;;;22.53;;
19329;SDS011;9799;48.214;16.388;2023-03-20T00:12:58;30.53;;;22.63;;
19329;SDS011;9799;48.214;16.388;2023-03-20T00:16:21;32.50;;;22.20;;
19329;SDS011;9799;48.214;16.388;2023-03-20T00:19:44;33.67;;;22.60;;
19329;SDS011;9799;48.214;16.388;2023-03-20T00:23:06;30.33;;;22.33;;
19329;SDS011;9799;48.214;16.388;2023-03-20T00:26:30;29.83;;;21.90;;
19329;SDS011;9799;48.214;16.388;2023-03-20T00:29:55;31.07;;;20.87;;
19329;SDS011;9799;48.214;16.388;2023-03-20T00:33:18;27.50;;;21.57;;
19329;SDS011;9799;48.214;16.388;2023-03-20T00:36:40;26.43;;;20.63;;
19329;SDS011;9799;48.214;16.388;2023-03-20T00:40:01;30.63;;;20.53;;
19329;SDS011;9799;48.214;16.388;2023-03-20T00:43:24;27.87;;;20.77;;
19329;SDS011;9799;48.214;16.388;2023-03-20T00:46:48;25.70;;;19.77;;
19329;SDS011;9799;48.214;16.388;2023-03-20T00:50:15;29.03;;;20.37;;
19329;SDS011;9799;48.214;16.388;2023-03-20T00:53:39;26.80;;;19.93;;
19329;SDS011;9799;48.214;16.388;2023-03-20T00:57:03;27.33;;;20.13;;
19329;SDS011;9799;48.214;16.388;2023-03-20T01:00:31;28.77;;;19.10;;
19329;SDS011;9799;48.214;16.388;2023-03-20T01:03:59;25.50;;;18.80;;
19329;SDS011;9799;48.214;16.388;2023-03-20T01:07:20;25.53;;;19.17;;
19329;SDS011;9799;48.214;16.388;2023-03-20T01:10:42;23.47;;;19.33;;
19329;SDS011;9799;48.214;16.388;2023-03-20T01:14:08;27.60;;;17.93;;
19329;SDS011;9799;48.214;16.388;2023-03-20T01:17:34;24.00;;;18.50;;
19329;SDS011;9799;48.214;16.388;2023-03-20T01:20:56;22.80;;;18.53;;
19329;SDS011;9799;48.214;16.388;2023-03-20T01:24:18;22.23;;;18.10;;
19329;SDS011;9799;48.214;16.388;2023-03-20T01:27:40;27.27;;;18.73;;
19329;SDS011;9799;48.214;16.388;2023-03-20T01:31:04;24.90;;;18.67;;
19329;SDS011;9799;48.214;16.388;2023-03-20T01:34:26;24.17;;;18.80;;
19329;SDS011;9799;48.214;16.388;2023-03-20T01:37:49;26.30;;;19.03;;
19329;SDS011;9799;48.214;16.388;2023-03-20T01:41:11;23.07;;;18.57;;
19329;SDS011;9799;48.214;16.388;2023-03-20T01:44:35;23.83;;;18.30;;
19329;SDS011;9799;48.214;16.388;2023-03-20T01:47:57;24.03;;;19.20;;
19329;SDS011;9799;48.214;16.388;2023-03-20T01:51:20;23.40;;;18.00;;
19329;SDS011;9799;48.214;16.388;2023-03-20T01:54:43;26.70;;;19.97;;
19329;SDS011;9799;48.214;16.388;2023-03-20T01:58:06;25.47;;;20.33;;
19329;SDS011;9799;48.214;16.388;2023-03-20T02:01:32;23.63;;;18.80;;
19329;SDS011;9799;48.214;16.388;2023-03-20T02:04:56;21.23;;;18.50;;
19329;SDS011;9799;48.214;16.388;2023-03-20T02:08:21;24.93;;;19.67;;
19329;SDS011;9799;48.214;16.388;2023-03-20T02:11:48;25.83;;;19.87;;
19329;SDS011;9799;48.214;16.388;2023-03-20T02:15:10;27.57;;;19.87;;
19329;SDS011;9799;48.214;16.388;2023-03-20T02:18:35;23.93;;;19.13;;
19329;SDS011;9799;48.214;16.388;2023-03-20T02:22:13;26.50;;;18.83;;
19329;SDS011;9799;48.214;16.388;2023-03-20T02:26:02;24.00;;;18.33;;
19329;SDS011;9799;48.214;16.388;2023-03-20T02:37:56;24.50;;;19.23;;
19329;SDS011;9799;48.214;16.388;2023-03-20T02:41:29;27.57;;;20.47;;
19329;SDS011;9799;48.214;16.388;2023-03-20T02:44:59;29.33;;;21.03;;
19329;SDS011;9799;48.214;16.388;2023-03-20T02:48:32;31.20;;;22.00;;
19329;SDS011;9799;48.214;16.388;2023-03-20T02:52:04;24.70;;;18.93;;
19329;SDS011;9799;48.214;16.388;2023-03-20T02:55:37;25.07;;;20.47;;
19329;SDS011;9799;48.214;16.388;2023-03-20T02:59:05;28.17;;;21.30;;
19329;SDS011;9799;48.214;16.388;2023-03-20T03:02:33;31.50;;;21.70;;
19329;SDS011;9799;48.214;16.388;2023-03-20T03:05:58;28.50;;;21.20;;
19329;SDS011;9799;48.214;16.388;2023-03-20T03:09:24;26.83;;;20.03;;
19329;SDS011;9799;48.214;16.388;2023-03-20T03:12:51;24.17;;;20.00;;
19329;SDS011;9799;48.214;16.388;2023-03-20T03:16:17;29.63;;;21.87;;
19329;SDS011;9799;48.214;16.388;2023-03-20T03:19:41;28.47;;;22.20;;
19329;SDS011;9799;48.214;16.388;2023-03-20T03:23:09;27.67;;;21.80;;
19329;SDS011;9799;48.214;16.388;2023-03-20T03:26:38;31.27;;;21.63;;
19329;SDS011;9799;48.214;16.388;2023-03-20T03:30:04;26.63;;;21.87;;
19329;SDS011;9799;48.214;16.388;2023-03-20T03:33:30;27.63;;;22.70;;
19329;SDS011;9799;48.214;16.388;2023-03-20T03:36:57;31.97;;;21.37;;
19329;SDS011;9799;48.214;16.388;2023-03-20T03:40:27;27.33;;;21.03;;
19329;SDS011;9799;48.214;16.388;2023-03-20T03:43:56;26.97;;;20.83;;
19329;SDS011;9799;48.214;16.388;2023-03-20T03:47:28;24.73;;;19.97;;
19329;SDS011;9799;48.214;16.388;2023-03-20T03:50:53;30.07;;;22.07;;
19329;SDS011;9799;48.214;16.388;2023-03-20T03:54:18;31.57;;;21.90;;
19329;SDS011;9799;48.214;16.388;2023-03-20T03:57:43;28.10;;;22.10;;
19329;SDS011;9799;48.214;16.388;2023-03-20T04:01:09;30.43;;;22.60;;
19329;SDS011;9799;48.214;16.388;2023-03-20T04:04:34;28.17;;;22.47;;
19329;SDS011;9799;48.214;16.388;2023-03-20T04:07:58;30.97;;;23.30;;
19329;SDS011;9799;48.214;16.388;2023-03-20T04:11:23;28.73;;;21.10;;
19329;SDS011;9799;48.214;16.388;2023-03-20T04:14:48;29.80;;;22.43;;
19329;SDS011;9799;48.214;16.388;2023-03-20T04:18:10;29.83;;;23.20;;
19329;SDS011;9799;48.214;16.388;2023-03-20T04:21:37;26.67;;;21.83;;
19329;SDS011;9799;48.214;16.388;2023-03-20T04:24:59;29.20;;;22.37;;
19329;SDS011;9799;48.214;16.388;2023-03-20T04:28:21;26.70;;;21.97;;
19329;SDS011;9799;48.214;16.388;2023-03-20T04:31:42;29.83;;;22.03;;
19329;SDS011;9799;48.214;16.388;2023-03-20T04:35:04;27.00;;;22.73;;
19329;SDS011;9799;48.214;16.388;2023-03-20T04:38:28;30.77;;;22.60;;
19329;SDS011;9799;48.214;16.388;2023-03-20T04:41:49;29.23;;;22.40;;
19329;SDS011;9799;48.214;16.388;2023-03-20T04:45:11;28.07;;;22.37;;
19329;SDS011;9799;48.214;16.388;2023-03-20T04:48:33;28.90;;;22.83;;
19329;SDS011;9799;48.214;16.388;2023-03-20T04:51:55;30.23;;;22.40;;
19329;SDS011;9799;48.214;16.388;2023-03-20T04:55:18;25.33;;;20.77;;
19329;SDS011;9799;48.214;16.388;2023-03-20T04:58:41;25.87;;;22.17;;
19329;SDS011;9799;48.214;16.388;2023-03-20T05:02:02;29.83;;;23.20;;
19329;SDS011;9799;48.214;16.388;2023-03-20T05:05:24;29.00;;;22.27;;
19329;SDS011;9799;48.214;16.388;2023-03-20T05:08:47;29.10;;;22.13;;
19329;SDS011;9799;48.214;16.388;2023-03-20T05:12:10;30.60;;;23.60;;
19329;SDS011;9799;48.214;16.388;2023-03-20T05:15:31;30.53;;;23.40;;
19329;SDS011;9799;48.214;16.388;2023-03-20T05:18:53;29.00;;;23.23;;
19329;SDS011;9799;48.214;16.388;2023-03-20T05:22:14;30.77;;;22.87;;
19329;SDS011;9799;48.214;16.388;2023-03-20T05:25:36;31.37;;;23.87;;
19329;SDS011;9799;48.214;16.388;2023-03-20T05:28:59;31.53;;;24.87;;
19329;SDS011;9799;48.214;16.388;2023-03-20T05:32:20;33.03;;;23.67;;
19329;SDS011;9799;48.214;16.388;2023-03-20T05:35:42;33.00;;;23.87;;
19329;SDS011;9799;48.214;16.388;2023-03-20T05:39:04;30.13;;;23.90;;
19329;SDS011;9799;48.214;16.388;2023-03-20T05:42:25;33.37;;;24.50;;
19329;SDS011;9799;48.214;16.388;2023-03-20T05:45:49;33.43;;;23.63;;
19329;SDS011;9799;48.214;16.388;2023-03-20T05:49:11;37.53;;;24.97;;
19329;SDS011;9799;48.214;16.388;2023-03-20T05:52:33;36.63;;;26.00;;
19329;SDS011;9799;48.214;16.388;2023-03-20T05:55:55;30.00;;;23.87;;
19329;SDS011;9799;48.214;16.388;2023-03-20T05:59:16;38.67;;;24.87;;
19329;SDS011;9799;48.214;16.388;2023-03-20T06:02:39;35.90;;;25.10;;
19329;SDS011;9799;48.214;16.388;2023-03-20T06:06:01;36.43;;;25.77;;
19329;SDS011;9799;48.214;16.388;2023-03-20T06:09:24;34.37;;;23.30;;
19329;SDS011;9799;48.214;16.388;2023-03-20T06:12:45;30.87;;;24.03;;
19329;SDS011;9799;48.214;16.388;2023-03-20T06:16:07;27.97;;;23.97;;
19329;SDS011;9799;48.214;16.388;2023-03-20T06:19:31;33.63;;;24.57;;
19329;SDS011;9799;48.214;16.388;2023-03-20T06:22:52;32.27;;;25.13;;
19329;SDS011;9799;48.214;16.388;2023-03-20T06:26:13;31.87;;;25.57;;
19329;SDS011;9799;48.214;16.388;2023-03-20T06:29:35;32.13;;;24.80;;
19329;SDS011;9799;48.214;16.388;2023-03-20T06:32:56;35.23;;;26.87;;
19329;SDS011;9799;48.214;16.388;2023-03-20T06:36:19;37.37;;;26.60;;
19329;SDS011;9799;48.214;16.388;2023-03-20T06:39:41;39.93;;;27.20;;
19329;SDS011;9799;48.214;16.388;2023-03-20T06:43:03;34.60;;;27.07;;
19329;SDS011;9799;48.214;16.388;2023-03-20T06:46:25;37.07;;;26.87;;
19329;SDS011;9799;48.214;16.388;2023-03-20T06:49:46;46.80;;;30.57;;
19329;SDS011;9799;48.214;16.388;2023-03-20T06:53:10;45.07;;;30.17;;
19329;SDS011;9799;48.214;16.388;2023-03-20T06:56:31;47.37;;;29.87;;
19329;SDS011;9799;48.214;16.388;2023-03-20T06:59:53;45.47;;;30.50;;
19329;SDS011;9799;48.214;16.388;2023-03-20T07:03:14;54.53;;;30.20;;
19329;SDS011;9799;48.214;16.388;2023-03-20T07:06:36;42.40;;;29.13;;
19329;SDS011;9799;48.214;16.388;2023-03-20T07:09:59;49.90;;;31.67;;
19329;SDS011;9799;48.214;16.388;2023-03-20T07:13:22;40.47;;;28.90;;
19329;SDS011;9799;48.214;16.388;2023-03-20T07:16:44;41.30;;;29.93;;
19329;SDS011;9799;48.214;16.388;2023-03-20T07:20:06;41.57;;;29.47;;
19329;SDS011;9799;48.214;16.388;2023-03-20T07:23:29;39.63;;;27.90;;
19329;SDS011;9799;48.214;16.388;2023-03-20T07:26:54;36.30;;;27.43;;
19329;SDS011;9799;48.214;16.388;2023-03-20T07:30:16;37.87;;;25.03;;
19329;SDS011;9799;48.214;16.388;2023-03-20T07:33:37;32.37;;;22.03;;
19329;SDS011;9799;48.214;16.388;2023-03-20T07:36:59;31.33;;;19.97;;
19329;SDS011;9799;48.214;16.388;2023-03-20T07:40:21;23.97;;;19.07;;
19329;SDS011;9799;48.214;16.388;2023-03-20T07:43:44;19.77;;;16.73;;
19329;SDS011;9799;48.214;16.388;2023-03-20T07:47:05;27.17;;;19.00;;
19329;SDS011;9799;48.214;16.388;2023-03-20T07:50:27;20.03;;;16.70;;
19329;SDS011;9799;48.214;16.388;2023-03-20T07:53:49;21.27;;;17.33;;
19329;SDS011;9799;48.214;16.388;2023-03-20T07:57:10;20.47;;;16.20;;
19329;SDS011;9799;48.214;16.388;2023-03-20T08:00:33;21.57;;;14.83;;
19329;SDS011;9799;48.214;16.388;2023-03-20T08:03:54;15.73;;;14.03;;
19329;SDS011;9799;48.214;16.388;2023-03-20T08:07:16;19.23;;;14.20;;
19329;SDS011;9799;48.214;16.388;2023-03-20T08:10:37;17.77;;;13.77;;
19329;SDS011;9799;48.214;16.388;2023-03-20T08:13:58;15.43;;;13.00;;
19329;SDS011;9799;48.214;16.388;2023-03-20T08:17:21;15.43;;;12.30;;
19329;SDS011;9799;48.214;16.388;2023-03-20T08:20:43;13.67;;;11.20;;
19329;SDS011;9799;48.214;16.388;2023-03-20T08:24:05;20.03;;;12.20;;
19329;SDS011;9799;48.214;16.388;2023-03-20T08:27:27;17.10;;;12.17;;
19329;SDS011;9799;48.214;16.388;2023-03-20T08:30:49;14.33;;;11.67;;
19329;SDS011;9799;48.214;16.388;2023-03-20T08:34:12;12.63;;;10.87;;
19329;SDS011;9799;48.214;16.388;2023-03-20T08:37:33;14.50;;;10.73;;
19329;SDS011;9799;48.214;16.388;2023-03-20T08:40:56;12.37;;;10.57;;
19329;SDS011;9799;48.214;16.388;2023-03-20T08:44:17;14.73;;;10.57;;
19329;SDS011;9799;48.214;16.388;2023-03-20T08:47:42;13.20;;;10.90;;
19329;SDS011;9799;48.214;16.388;2023-03-20T08:51:08;12.60;;;10.63;;
19329;SDS011;9799;48.214;16.388;2023-03-20T08:54:29;12.17;;;10.27;;
19329;SDS011;9799;48.214;16.388;2023-03-20T08:57:52;12.47;;;10.67;;
19329;SDS011;9799;48.214;16.388;2023-03-20T09:01:15;14.70;;;11.37;;
19329;SDS011;9799;48.214;16.388;2023-03-20T09:04:37;15.33;;;11.53;;
19329;SDS011;9799;48.214;16.388;2023-03-20T09:08:00;13.47;;;11.40;;
19329;SDS011;9799;48.214;16.388;2023-03-20T09:11:22;17.60;;;11.50;;
19329;SDS011;9799;48.214;16.388;2023-03-20T09:14:44;12.20;;;10.43;;
19329;SDS011;9799;48.214;16.388;2023-03-20T09:18:05;14.80;;;9.97;;
19329;SDS011;9799;48.214;16.388;2023-03-20T09:21:27;12.23;;;9.40;;
19329;SDS011;9799;48.214;16.388;2023-03-20T09:24:50;16.67;;;9.77;;
19329;SDS011;9799;48.214;16.388;2023-03-20T09:28:12;9.63;;;7.40;;
19329;SDS011;9799;48.214;16.388;2023-03-20T09:31:34;9.93;;;7.77;;
19329;SDS011;9799;48.214;16.388;2023-03-20T09:34:56;8.70;;;7.33;;
19329;SDS011;9799;48.214;16.388;2023-03-20T09:38:17;8.83;;;7.23;;
19329;SDS011;9799;48.214;16.388;2023-03-20T09:41:44;8.07;;;6.83;;
19329;SDS011;9799;48.214;16.388;2023-03-20T09:45:08;8.33;;;6.57;;
19329;SDS011;9799;48.214;16.388;2023-03-20T09:48:34;8.23;;;6.80;;
19329;SDS011;9799;48.214;16.388;2023-03-20T09:52:09;7.57;;;6.60;;
19329;SDS011;9799;48.214;16.388;2023-03-20T09:55:40;6.47;;;5.27;;
19329;SDS011;9799;48.214;16.388;2023-03-20T09:59:04;6.30;;;5.47;;
19329;SDS011;9799;48.214;16.388;2023-03-20T10:02:32;9.63;;;5.43;;
19329;SDS011;9799;48.214;16.388;2023-03-20T10:06:00;8.40;;;5.43;;
19329;SDS011;9799;48.214;16.388;2023-03-20T10:09:25;8.13;;;5.63;;
19329;SDS011;9799;48.214;16.388;2023-03-20T10:12:51;6.80;;;5.57;;
19329;SDS011;9799;48.214;16.388;2023-03-20T10:16:27;9.97;;;6.10;;
19329;SDS011;9799;48.214;16.388;2023-03-20T10:20:00;7.43;;;4.80;;
19329;SDS011;9799;48.214;16.388;2023-03-20T10:23:31;6.00;;;5.40;;
19329;SDS011;9799;48.214;16.388;2023-03-20T10:26:57;12.33;;;5.17;;
19329;SDS011;9799;48.214;16.388;2023-03-20T10:30:28;10.17;;;5.63;;
19329;SDS011;9799;48.214;16.388;2023-03-20T10:34:07;5.60;;;4.70;;
19329;SDS011;9799;48.214;16.388;2023-03-20T10:37:48;6.83;;;5.53;;
19329;SDS011;9799;48.214;16.388;2023-03-20T10:41:18;6.87;;;6.17;;
19329;SDS011;9799;48.214;16.388;2023-03-20T10:44:44;6.60;;;5.67;;
19329;SDS011;9799;48.214;16.388;2023-03-20T10:48:12;9.30;;;6.47;;
19329;SDS011;9799;48.214;16.388;2023-03-20T10:51:46;11.10;;;6.57;;
19329;SDS011;9799;48.214;16.388;2023-03-20T10:55:11;8.97;;;6.50;;
19329;SDS011;9799;48.214;16.388;2023-03-20T10:58:37;6.83;;;5.63;;
19329;SDS011;9799;48.214;16.388;2023-03-20T11:02:04;6.07;;;5.47;;
19329;SDS011;9799;48.214;16.388;2023-03-20T11:05:29;6.77;;;5.87;;
19329;SDS011;9799;48.214;16.388;2023-03-20T11:08:54;8.90;;;6.40;;
19329;SDS011;9799;48.214;16.388;2023-03-20T11:12:16;7.50;;;5.80;;
19329;SDS011;9799;48.214;16.388;2023-03-20T11:15:40;11.17;;;6.07;;
19329;SDS011;9799;48.214;16.388;2023-03-20T11:19:03;6.03;;;5.37;;
19329;SDS011;9799;48.214;16.388;2023-03-20T11:22:27;5.60;;;4.67;;
19329;SDS011;9799;48.214;16.388;2023-03-20T11:25:50;6.40;;;5.80;;
19329;SDS011;9799;48.214;16.388;2023-03-20T11:29:18;6.13;;;5.53;;
19329;SDS011;9799;48.214;16.388;2023-03-20T11:32:46;8.17;;;5.80;;
19329;SDS011;9799;48.214;16.388;2023-03-20T11:36:10;6.60;;;5.20;;
19329;SDS011;9799;48.214;16.388;2023-03-20T11:39:42;5.63;;;5.07;;
19329;SDS011;9799;48.214;16.388;2023-03-20T11:43:17;8.70;;;6.03;;
19329;SDS011;9799;48.214;16.388;2023-03-20T11:46:41;6.77;;;6.07;;
19329;SDS011;9799;48.214;16.388;2023-03-20T11:50:03;6.17;;;5.57;;
19329;SDS011;9799;48.214;16.388;2023-03-20T11:53:27;7.50;;;6.63;;
19329;SDS011;9799;48.214;16.388;2023-03-20T11:56:53;9.23;;;6.30;;
19329;SDS011;9799;48.214;16.388;2023-03-20T12:00:17;9.00;;;6.80;;
19329;SDS011;9799;48.214;16.388;2023-03-20T12:03:42;6.00;;;5.47;;
19329;SDS011;9799;48.214;16.388;2023-03-20T12:07:08;8.17;;;6.63;;
19329;SDS011;9799;48.214;16.388;2023-03-20T12:10:34;7.80;;;5.13;;
19329;SDS011;9799;48.214;16.388;2023-03-20T12:13:58;6.87;;;6.10;;
19329;SDS011;9799;48.214;16.388;2023-03-20T12:17:28;7.77;;;6.63;;
19329;SDS011;9799;48.214;16.388;2023-03-20T12:21:01;7.10;;;6.40;;
19329;SDS011;9799;48.214;16.388;2023-03-20T12:24:28;8.03;;;7.23;;
19329;SDS011;9799;48.214;16.388;2023-03-20T12:28:00;9.93;;;7.77;;
19329;SDS011;9799;48.214;16.388;2023-03-20T12:31:24;8.50;;;7.67;;
19329;SDS011;9799;48.214;16.388;2023-03-20T12:34:55;8.43;;;7.63;;
19329;SDS011;9799;48.214;16.388;2023-03-20T12:38:22;8.00;;;7.30;;
19329;SDS011;9799;48.214;16.388;2023-03-20T12:41:49;7.57;;;6.47;;
19329;SDS011;9799;48.214;16.388;2023-03-20T12:45:25;10.23;;;6.30;;
19329;SDS011;9799;48.214;16.388;2023-03-20T12:48:57;8.67;;;6.40;;
19329;SDS011;9799;48.214;16.388;2023-03-20T12:52:33;7.00;;;6.30;;
19329;SDS011;9799;48.214;16.388;2023-03-20T12:56:07;6.97;;;6.27;;
19329;SDS011;9799;48.214;16.388;2023-03-20T12:59:40;6.23;;;5.63;;
19329;SDS011;9799;48.214;16.388;2023-03-20T13:03:18;7.23;;;6.50;;
19329;SDS011;9799;48.214;16.388;2023-03-20T13:06:55;7.13;;;6.43;;
19329;SDS011;9799;48.214;16.388;2023-03-20T13:10:22;7.83;;;5.53;;
19329;SDS011;9799;48.214;16.388;2023-03-20T13:13:50;6.83;;;4.90;;
19329;SDS011;9799;48.214;16.388;2023-03-20T13:17:16;5.47;;;4.97;;
19329;SDS011;9799;48.214;16.388;2023-03-20T13:20:46;7.23;;;5.97;;
19329;SDS011;9799;48.214;16.388;2023-03-20T13:24:20;7.00;;;5.87;;
19329;SDS011;9799;48.214;16.388;2023-03-20T13:27:50;7.77;;;6.77;;
19329;SDS011;9799;48.214;16.388;2023-03-20T13:31:19;6.10;;;5.50;;
19329;SDS011;9799;48.214;16.388;2023-03-20T13:38:41;6.80;;;5.17;;
19329;SDS011;9799;48.214;16.388;2023-03-20T13:42:10;6.50;;;5.20;;
19329;SDS011;9799;48.214;16.388;2023-03-20T13:45:35;6.40;;;5.67;;
19329;SDS011;9799;48.214;16.388;2023-03-20T13:49:00;8.10;;;5.70;;
19329;SDS011;9799;48.214;16.388;2023-03-20T13:52:28;8.10;;;5.03;;
19329;SDS011;9799;48.214;16.388;2023-03-20T13:55:57;9.70;;;4.40;;
19329;SDS011;9799;48.214;16.388;2023-03-20T13:59:49;6.57;;;4.80;;
19329;SDS011;9799;48.214;16.388;2023-03-20T14:03:29;5.33;;;4.63;;
19329;SDS011;9799;48.214;16.388;2023-03-20T14:06:53;8.07;;;4.90;;
19329;SDS011;9799;48.214;16.388;2023-03-20T14:10:37;5.67;;;4.73;;
19329;SDS011;9799;48.214;16.388;2023-03-20T14:14:01;7.33;;;4.80;;
19329;SDS011;9799;48.214;16.388;2023-03-20T14:17:27;7.37;;;6.20;;
19329;SDS011;9799;48.214;16.388;2023-03-20T14:20:53;5.83;;;5.23;;
19329;SDS011;9799;48.214;16.388;2023-03-20T14:24:17;6.90;;;4.93;;
19329;SDS011;9799;48.214;16.388;2023-03-20T14:27:52;12.23;;;5.83;;
19329;SDS011;9799;48.214;16.388;2023-03-20T14:31:21;6.40;;;5.73;;
19329;SDS011;9799;48.214;16.388;2023-03-20T14:34:46;7.50;;;6.43;;
19329;SDS011;9799;48.214;16.388;2023-03-20T14:41:56;6.33;;;5.73;;
19329;SDS011;9799;48.214;16.388;2023-03-20T14:45:34;6.40;;;5.80;;
19329;SDS011;9799;48.214;16.388;2023-03-20T14:49:01;6.50;;;5.90;;
19329;SDS011;9799;48.214;16.388;2023-03-20T14:52:41;6.90;;;6.20;;
19329;SDS011;9799;48.214;16.388;2023-03-20T14:56:13;7.47;;;5.73;;
19329;SDS011;9799;48.214;16.388;2023-03-20T14:59:35;18.53;;;6.47;;
19329;SDS011;9799;48.214;16.388;2023-03-20T15:02:59;7.80;;;5.93;;
19329;SDS011;9799;48.214;16.388;2023-03-20T15:06:27;8.30;;;5.23;;
19329;SDS011;9799;48.214;16.388;2023-03-20T15:09:50;8.87;;;6.47;;
19329;SDS011;9799;48.214;16.388;2023-03-20T15:13:15;5.67;;;5.00;;
19329;SDS011;9799;48.214;16.388;2023-03-20T15:16:37;7.87;;;5.37;;
19329;SDS011;9799;48.214;16.388;2023-03-20T15:19:59;7.03;;;5.20;;
19329;SDS011;9799;48.214;16.388;2023-03-20T15:23:22;7.90;;;5.70;;
19329;SDS011;9799;48.214;16.388;2023-03-20T15:26:45;6.80;;;5.17;;
19329;SDS011;9799;48.214;16.388;2023-03-20T15:30:10;5.37;;;4.73;;
19329;SDS011;9799;48.214;16.388;2023-03-20T15:33:35;6.13;;;5.37;;
19329;SDS011;9799;48.214;16.388;2023-03-20T15:37:01;9.97;;;4.77;;
19329;SDS011;9799;48.214;16.388;2023-03-20T15:40:24;5.23;;;4.73;;
19329;SDS011;9799;48.214;16.388;2023-03-20T15:43:46;5.17;;;4.67;;
19329;SDS011;9799;48.214;16.388;2023-03-20T15:47:12;6.17;;;5.23;;
19329;SDS011;9799;48.214;16.388;2023-03-20T15:50:39;5.20;;;4.70;;
19329;SDS011;9799;48.214;16.388;2023-03-20T15:54:04;5.43;;;4.93;;
19329;SDS011;9799;48.214;16.388;2023-03-20T15:57:28;9.80;;;5.27;;
19329;SDS011;9799;48.214;16.388;2023-03-20T16:00:53;9.03;;;3.77;;
19329;SDS011;9799;48.214;16.388;2023-03-20T16:04:16;11.47;;;4.70;;
19329;SDS011;9799;48.214;16.388;2023-03-20T16:07:38;7.27;;;4.80;;
19329;SDS011;9799;48.214;16.388;2023-03-20T16:11:01;8.33;;;4.50;;
19329;SDS011;9799;48.214;16.388;2023-03-20T16:14:24;4.37;;;4.00;;
19329;SDS011;9799;48.214;16.388;2023-03-20T16:17:47;7.50;;;4.70;;
19329;SDS011;9799;48.214;16.388;2023-03-20T16:21:14;5.20;;;4.67;;
19329;SDS011;9799;48.214;16.388;2023-03-20T16:24:42;4.63;;;4.23;;
19329;SDS011;9799;48.214;16.388;2023-03-20T16:28:10;4.70;;;4.30;;
19329;SDS011;9799;48.214;16.388;2023-03-20T16:31:34;7.37;;;5.07;;
19329;SDS011;9799;48.214;16.388;2023-03-20T16:34:56;5.33;;;4.83;;
19329;SDS011;9799;48.214;16.388;2023-03-20T16:38:23;4.77;;;4.33;;
19329;SDS011;9799;48.214;16.388;2023-03-20T16:41:50;7.53;;;5.43;;
19329;SDS011;9799;48.214;16.388;2023-03-20T16:45:24;5.10;;;4.53;;
19329;SDS011;9799;48.214;16.388;2023-03-20T16:48:49;5.50;;;4.77;;
19329;SDS011;9799;48.214;16.388;2023-03-20T16:52:12;5.40;;;4.90;;
19329;SDS011;9799;48.214;16.388;2023-03-20T16:55:40;8.77;;;5.37;;
19329;SDS011;9799;48.214;16.388;2023-03-20T16:59:05;5.83;;;5.17;;
19329;SDS011;9799;48.214;16.388;2023-03-20T17:02:28;9.47;;;5.27;;
19329;SDS011;9799;48.214;16.388;2023-03-20T17:05:55;7.37;;;5.37;;
19329;SDS011;9799;48.214;16.388;2023-03-20T17:09:20;5.63;;;5.13;;
19329;SDS011;9799;48.214;16.388;2023-03-20T17:12:45;5.90;;;4.87;;
19329;SDS011;9799;48.214;16.388;2023-03-20T17:16:09;6.20;;;5.37;;
19329;SDS011;9799;48.214;16.388;2023-03-20T17:19:35;6.23;;;5.63;;
19329;SDS011;9799;48.214;16.388;2023-03-20T17:22:56;5.93;;;5.37;;
19329;SDS011;9799;48.214;16.388;2023-03-20T17:26:19;8.23;;;6.10;;
19329;SDS011;9799;48.214;16.388;2023-03-20T17:29:43;5.83;;;5.00;;
19329;SDS011;9799;48.214;16.388;2023-03-20T17:33:08;7.27;;;6.50;;
19329;SDS011;9799;48.214;16.388;2023-03-20T17:36:33;7.30;;;6.60;;
19329;SDS011;9799;48.214;16.388;2023-03-20T17:39:55;6.93;;;6.23;;
19329;SDS011;9799;48.214;16.388;2023-03-20T17:43:16;8.03;;;5.63;;
19329;SDS011;9799;48.214;16.388;2023-03-20T17:46:40;8.47;;;6.27;;
19329;SDS011;9799;48.214;16.388;2023-03-20T17:50:08;9.23;;;6.60;;
19329;SDS011;9799;48.214;16.388;2023-03-20T17:53:36;7.27;;;6.50;;
19329;SDS011;9799;48.214;16.388;2023-03-20T17:56:58;7.80;;;7.00;;
19329;SDS011;9799;48.214;16.388;2023-03-20T18:00:21;7.43;;;6.73;;
19329;SDS011;9799;48.214;16.388;2023-03-20T18:03:45;8.27;;;7.23;;
19329;SDS011;9799;48.214;16.388;2023-03-20T18:07:07;7.87;;;6.67;;
19329;SDS011;9799;48.214;16.388;2023-03-20T18:10:31;7.37;;;6.70;;
19329;SDS011;9799;48.214;16.388;2023-03-20T18:13:55;8.27;;;7.47;;
19329;SDS011;9799;48.214;16.388;2023-03-20T18:17:19;8.33;;;7.00;;
19329;SDS011;9799;48.214;16.388;2023-03-20T18:20:43;8.77;;;7.37;;
19329;SDS011;9799;48.214;16.388;2023-03-20T18:24:06;8.07;;;7.27;;
19329;SDS011;9799;48.214;16.388;2023-03-20T18:27:28;8.50;;;7.70;;
19329;SDS011;9799;48.214;16.388;2023-03-20T18:30:51;9.90;;;7.50;;
19329;SDS011;9799;48.214;16.388;2023-03-20T18:34:13;9.47;;;8.23;;
19329;SDS011;9799;48.214;16.388;2023-03-20T18:37:38;11.47;;;10.37;;
19329;SDS011;9799;48.214;16.388;2023-03-20T18:41:00;8.67;;;7.77;;
19329;SDS011;9799;48.214;16.388;2023-03-20T18:44:22;9.83;;;8.80;;
19329;SDS011;9799;48.214;16.388;2023-03-20T18:47:44;9.60;;;8.50;;
19329;SDS011;9799;48.214;16.388;2023-03-20T18:51:08;9.23;;;8.17;;
19329;SDS011;9799;48.214;16.388;2023-03-20T18:54:32;11.20;;;9.20;;
19329;SDS011;9799;48.214;16.388;2023-03-20T18:57:55;9.83;;;8.80;;
19329;SDS011;9799;48.214;16.388;2023-03-20T19:01:17;10.27;;;8.53;;
19329;SDS011;9799;48.214;16.388;2023-03-20T19:04:43;9.60;;;8.63;;
19329;SDS011;9799;48.214;16.388;2023-03-20T19:08:06;10.83;;;9.70;;
19329;SDS011;9799;48.214;16.388;2023-03-20T19:11:34;9.67;;;8.70;;
19329;SDS011;9799;48.214;16.388;2023-03-20T19:14:57;10.60;;;8.93;;
19329;SDS011;9799;48.214;16.388;2023-03-20T19:18:19;10.07;;;8.97;;
19329;SDS011;9799;48.214;16.388;2023-03-20T19:21:43;10.73;;;9.47;;
19329;SDS011;9799;48.214;16.388;2023-03-20T19:25:06;12.57;;;8.90;;
19329;SDS011;9799;48.214;16.388;2023-03-20T19:28:30;11.77;;;9.77;;
19329;SDS011;9799;48.214;16.388;2023-03-20T19:31:57;10.73;;;9.43;;
19329;SDS011;9799;48.214;16.388;2023-03-20T19:35:19;9.73;;;8.73;;
19329;SDS011;9799;48.214;16.388;2023-03-20T19:38:43;10.83;;;8.93;;
19329;SDS011;9799;48.214;16.388;2023-03-20T19:42:06;9.30;;;8.40;;
19329;SDS011;9799;48.214;16.388;2023-03-20T19:45:31;9.13;;;8.27;;
19329;SDS011;9799;48.214;16.388;2023-03-20T19:48:55;12.07;;;8.77;;
19329;SDS011;9799;48.214;16.388;2023-03-20T19:52:28;9.47;;;8.47;;
19329;SDS011;9799;48.214;16.388;2023-03-20T19:55:53;9.23;;;8.37;;
19329;SDS011;9799;48.214;16.388;2023-03-20T19:59:17;8.83;;;7.93;;
19329;SDS011;9799;48.214;16.388;2023-03-20T20:02:41;9.73;;;8.70;;
19329;SDS011;9799;48.214;16.388;2023-03-20T20:06:05;10.07;;;8.40;;
19329;SDS011;9799;48.214;16.388;2023-03-20T20:09:27;9.53;;;8.57;;
19329;SDS011;9799;48.214;16.388;2023-03-20T20:12:51;9.50;;;8.60;;
19329;SDS011;9799;48.214;16.388;2023-03-20T20:16:13;10.70;;;9.57;;
19329;SDS011;9799;48.214;16.388;2023-03-20T20:19:38;9.87;;;8.93;;
19329;SDS011;9799;48.214;16.388;2023-03-20T20:23:00;12.30;;;9.10;;
19329;SDS011;9799;48.214;16.388;2023-03-20T20:26:23;8.87;;;7.90;;
19329;SDS011;9799;48.214;16.388;2023-03-20T20:29:46;8.73;;;7.87;;
19329;SDS011;9799;48.214;16.388;2023-03-20T20:33:09;10.90;;;8.13;;
19329;SDS011;9799;48.214;16.388;2023-03-20T20:36:32;9.43;;;8.30;;